Sawyer County Airport Hayward US
ICAO: KHYR
IATA: HYR
Category: Medium
Scheduled Services: No

Elevation: 1216 ft
TransAlt. 18000 ft.

Airport Communications:
MINNEAPOLIS CNTR:126.45
ASOS:113.4
GREEN BAY RDO:113.4
CTAF/UNICOM:122.8

KHYR Zoom In..

If you have problems with the map follow the link
https://www.worldairports.se/pages/airport.php?
ICAO=KHYR

Runways:

(A) RW 02 length 5002 ft width 100 ft
LOC 108.50 / hdg 25

(B) RW 16 length 1090 ft width 110 ft
LOC 108.50 / hdg 163

(C) RW 20 length 5002 ft width 100 ft
LOC 108.50 / hdg 205

(D) RW 34 length 1090 ft width 110 ft
LOC 108.50 / hdg 343

Location; KHYR
Day. 12 / Time. 07.13 Zulu
* Altimeter: 30.35
* Temperature: -17° c. -1.4°f.
* Wind from: 070° Speed 04 kn.
Dewpoint: -20° c.
Visibility: 1 m.
Clouds: Overcast 1700 ft.
Conditions: Light Snow.

KHYR 120713Z AUTO 07004KT 1 1/4SM -SN OVC017 M17/M20 A3035 RMK AO2 P0002 T11671200


Wind From 070°
Speed 04 kn.

 
 
jpsmedia worldairports.se 2019   terms of use